Wednesday, November 22, 2017, 12:57 PM GMT
Back to Local

CWIT, Saint Clothilde Automated Reporting Station

Location: , , Canada Lat: 45.167
Local Time: 12:57 PM GMT (12:57 GMT) Lon: -73.683
Time Zone: GMT Elev: 170 ft

Show me the last for .
Show Coded

Time T Td Feel RH Dir Speed Gust Alt SLP Vis Weather Sky Remarks
2017-11-22 12:00 35 34 30 94 280° 7 - - 29.92 0 1-hr Precip Total: 0.02"
2017-11-22 11:00 37 37 31 100 280° 7 - - 29.90 0 1-hr Precip Total: 0.02"
2017-11-22 10:00 41 39 - 91 240° 1 - - 29.86 0 None
2017-11-22 09:00 43 37 42 78 260° 3 - - 29.85 0 None
2017-11-22 08:00 44 34 - 68 290° 2 - - 29.84 0 None
2017-11-22 07:00 44 29 - 54 200° 2 - - 29.84 0 None
2017-11-22 06:00 46 28 44 48 210° 5 - - 29.83 0 None
2017-11-22 05:00 44 26 - 48 200° 2 - - 29.82 0 None
2017-11-22 04:00 43 27 41 52 170° 3 - - 29.81 0 None
2017-11-22 03:00 42 26 40 54 170° 3 - - 29.81 0 None
2017-11-22 02:00 37 27 - 67 190° 1 - - 29.81 0 None
2017-11-22 01:00 38 27 - 63 210° 1 - - 29.80 0 None
2017-11-22 00:00 43 26 41 50 170° 3 - - 29.78 0 None
2017-11-21 23:00 45 27 43 49 180° 3 - - 29.77 0 None
2017-11-21 22:00 51 26 - 36 180° 6 - - 29.75 0 None
2017-11-21 21:00 52 24 - 33 190° 7 - - 29.72 0 Peak wind: 24 mph (21 kts) from 230° at 15 min
2017-11-21 20:00 47 33 - 58 140° 1 - - 29.71 0 None
2017-11-21 19:00 49 33 47 54 140° 5 - - 29.71 0 None
2017-11-21 18:00 47 32 45 54 130° 5 - - 29.72 0 None
2017-11-21 17:00 43 30 39 59 140° 6 - - 29.72 0 None
2017-11-21 16:00 43 28 36 56 170° 12 - - 29.74 0 None
2017-11-21 15:00 43 27 37 53 160° 9 - - 29.76 0 None
2017-11-21 14:00 37 27 30 69 160° 8 - - 29.79 0 None
2017-11-21 13:00 34 26 27 72 150° 8 - - 29.81 0 None

Support USWX by starting your Amazon purchase here.